sensor_id;sensor_type;location;lat;lon;timestamp;P1;durP1;ratioP1;P2;durP2;ratioP2
70832;SDS011;58452;59.418;17.962;2022-11-04T00:01:26;8.52;;;3.80;;
70832;SDS011;58452;59.418;17.962;2022-11-04T00:03:52;17.27;;;5.03;;
70832;SDS011;58452;59.418;17.962;2022-11-04T00:06:18;21.02;;;7.05;;
70832;SDS011;58452;59.418;17.962;2022-11-04T00:08:48;11.45;;;5.00;;
70832;SDS011;58452;59.418;17.962;2022-11-04T00:11:14;24.38;;;5.63;;
70832;SDS011;58452;59.418;17.962;2022-11-04T00:13:58;17.02;;;5.45;;
70832;SDS011;58452;59.418;17.962;2022-11-04T00:16:24;9.35;;;4.07;;
70832;SDS011;58452;59.418;17.962;2022-11-04T00:19:08;12.25;;;4.82;;
70832;SDS011;58452;59.418;17.962;2022-11-04T00:21:33;15.48;;;4.63;;
70832;SDS011;58452;59.418;17.962;2022-11-04T00:24:17;14.43;;;5.55;;
70832;SDS011;58452;59.418;17.962;2022-11-04T00:27:01;16.00;;;4.20;;
70832;SDS011;58452;59.418;17.962;2022-11-04T00:29:45;9.32;;;3.88;;
70832;SDS011;58452;59.418;17.962;2022-11-04T00:32:10;12.75;;;5.80;;
70832;SDS011;58452;59.418;17.962;2022-11-04T00:34:54;12.23;;;5.18;;
70832;SDS011;58452;59.418;17.962;2022-11-04T00:37:20;11.93;;;4.85;;
70832;SDS011;58452;59.418;17.962;2022-11-04T00:39:45;15.88;;;5.18;;
70832;SDS011;58452;59.418;17.962;2022-11-04T00:42:11;13.95;;;5.00;;
70832;SDS011;58452;59.418;17.962;2022-11-04T00:44:36;12.85;;;4.43;;
70832;SDS011;58452;59.418;17.962;2022-11-04T00:47:02;10.90;;;4.47;;
70832;SDS011;58452;59.418;17.962;2022-11-04T00:49:27;14.40;;;4.45;;
70832;SDS011;58452;59.418;17.962;2022-11-04T00:51:53;16.27;;;4.20;;
70832;SDS011;58452;59.418;17.962;2022-11-04T00:54:19;13.48;;;5.25;;
70832;SDS011;58452;59.418;17.962;2022-11-04T00:56:44;8.98;;;4.20;;
70832;SDS011;58452;59.418;17.962;2022-11-04T00:59:09;16.33;;;3.95;;
70832;SDS011;58452;59.418;17.962;2022-11-04T01:01:35;12.32;;;5.07;;
70832;SDS011;58452;59.418;17.962;2022-11-04T01:04:00;7.90;;;3.90;;
70832;SDS011;58452;59.418;17.962;2022-11-04T01:06:26;13.63;;;4.65;;
70832;SDS011;58452;59.418;17.962;2022-11-04T01:08:55;10.55;;;4.50;;
70832;SDS011;58452;59.418;17.962;2022-11-04T01:11:22;11.43;;;3.95;;
70832;SDS011;58452;59.418;17.962;2022-11-04T01:13:50;6.80;;;4.75;;
70832;SDS011;58452;59.418;17.962;2022-11-04T01:16:16;9.77;;;4.55;;
70832;SDS011;58452;59.418;17.962;2022-11-04T01:18:42;14.48;;;5.53;;
70832;SDS011;58452;59.418;17.962;2022-11-04T01:21:09;11.70;;;5.07;;
70832;SDS011;58452;59.418;17.962;2022-11-04T01:23:37;14.88;;;5.60;;
70832;SDS011;58452;59.418;17.962;2022-11-04T01:26:06;13.10;;;4.18;;
70832;SDS011;58452;59.418;17.962;2022-11-04T01:28:33;14.48;;;6.15;;
70832;SDS011;58452;59.418;17.962;2022-11-04T01:30:59;9.60;;;4.28;;
70832;SDS011;58452;59.418;17.962;2022-11-04T01:33:29;16.98;;;4.38;;
70832;SDS011;58452;59.418;17.962;2022-11-04T01:35:57;16.73;;;4.80;;
70832;SDS011;58452;59.418;17.962;2022-11-04T01:38:23;11.40;;;4.25;;
70832;SDS011;58452;59.418;17.962;2022-11-04T01:40:49;9.90;;;3.90;;
70832;SDS011;58452;59.418;17.962;2022-11-04T01:43:18;6.78;;;3.50;;
70832;SDS011;58452;59.418;17.962;2022-11-04T01:45:55;11.82;;;4.22;;
70832;SDS011;58452;59.418;17.962;2022-11-04T01:48:25;13.10;;;4.78;;
70832;SDS011;58452;59.418;17.962;2022-11-04T01:50:55;14.73;;;4.68;;
70832;SDS011;58452;59.418;17.962;2022-11-04T01:53:35;10.75;;;4.65;;
70832;SDS011;58452;59.418;17.962;2022-11-04T01:56:04;12.40;;;4.43;;
70832;SDS011;58452;59.418;17.962;2022-11-04T01:58:39;9.65;;;3.92;;
70832;SDS011;58452;59.418;17.962;2022-11-04T02:01:10;9.75;;;4.07;;
70832;SDS011;58452;59.418;17.962;2022-11-04T02:03:57;10.15;;;3.92;;
70832;SDS011;58452;59.418;17.962;2022-11-04T02:06:43;11.68;;;4.30;;
70832;SDS011;58452;59.418;17.962;2022-11-04T02:09:11;13.00;;;3.50;;
70832;SDS011;58452;59.418;17.962;2022-11-04T02:11:37;9.32;;;4.88;;
70832;SDS011;58452;59.418;17.962;2022-11-04T02:14:20;9.32;;;3.85;;
70832;SDS011;58452;59.418;17.962;2022-11-04T02:16:46;14.73;;;3.67;;
70832;SDS011;58452;59.418;17.962;2022-11-04T02:30:17;14.38;;;5.80;;
70832;SDS011;58452;59.418;17.962;2022-11-04T02:35:38;14.20;;;4.68;;
70832;SDS011;58452;59.418;17.962;2022-11-04T02:39:04;11.73;;;4.90;;
70832;SDS011;58452;59.418;17.962;2022-11-04T02:44:03;12.30;;;4.63;;
70832;SDS011;58452;59.418;17.962;2022-11-04T02:49:09;16.50;;;4.90;;
70832;SDS011;58452;59.418;17.962;2022-11-04T02:51:41;12.32;;;4.32;;
70832;SDS011;58452;59.418;17.962;2022-11-04T02:56:44;13.15;;;4.97;;
70832;SDS011;58452;59.418;17.962;2022-11-04T03:00:12;13.02;;;5.30;;
70832;SDS011;58452;59.418;17.962;2022-11-04T03:02:21;9.00;;;5.05;;
70832;SDS011;58452;59.418;17.962;2022-11-04T03:04:51;10.77;;;4.95;;
70832;SDS011;58452;59.418;17.962;2022-11-04T03:07:21;13.35;;;4.80;;
70832;SDS011;58452;59.418;17.962;2022-11-04T03:09:52;21.48;;;6.22;;
70832;SDS011;58452;59.418;17.962;2022-11-04T03:12:24;12.07;;;4.40;;
70832;SDS011;58452;59.418;17.962;2022-11-04T03:14:55;8.77;;;4.18;;
70832;SDS011;58452;59.418;17.962;2022-11-04T03:17:30;13.23;;;4.38;;
70832;SDS011;58452;59.418;17.962;2022-11-04T03:20:02;14.07;;;4.93;;
70832;SDS011;58452;59.418;17.962;2022-11-04T03:22:34;10.82;;;5.05;;
70832;SDS011;58452;59.418;17.962;2022-11-04T03:25:01;14.68;;;4.88;;
70832;SDS011;58452;59.418;17.962;2022-11-04T03:27:45;9.90;;;4.78;;
70832;SDS011;58452;59.418;17.962;2022-11-04T03:30:17;9.32;;;4.22;;
70832;SDS011;58452;59.418;17.962;2022-11-04T03:35:25;9.45;;;3.55;;
70832;SDS011;58452;59.418;17.962;2022-11-04T03:37:51;12.50;;;4.78;;
70832;SDS011;58452;59.418;17.962;2022-11-04T03:40:17;10.57;;;3.97;;
70832;SDS011;58452;59.418;17.962;2022-11-04T03:42:49;8.63;;;3.65;;
70832;SDS011;58452;59.418;17.962;2022-11-04T03:45:21;12.40;;;5.45;;
70832;SDS011;58452;59.418;17.962;2022-11-04T03:47:47;12.23;;;4.75;;
70832;SDS011;58452;59.418;17.962;2022-11-04T03:50:18;9.57;;;4.40;;
70832;SDS011;58452;59.418;17.962;2022-11-04T03:52:51;10.02;;;3.45;;
70832;SDS011;58452;59.418;17.962;2022-11-04T03:55:17;13.60;;;5.15;;
70832;SDS011;58452;59.418;17.962;2022-11-04T04:00:16;16.58;;;5.22;;
70832;SDS011;58452;59.418;17.962;2022-11-04T04:05:33;8.43;;;3.85;;
70832;SDS011;58452;59.418;17.962;2022-11-04T04:10:48;9.75;;;3.45;;
70832;SDS011;58452;59.418;17.962;2022-11-04T04:18:54;18.10;;;6.07;;
70832;SDS011;58452;59.418;17.962;2022-11-04T04:21:25;11.57;;;3.70;;
70832;SDS011;58452;59.418;17.962;2022-11-04T04:23:55;10.93;;;2.63;;
70832;SDS011;58452;59.418;17.962;2022-11-04T04:26:42;9.60;;;3.80;;
70832;SDS011;58452;59.418;17.962;2022-11-04T04:29:38;23.43;;;4.17;;
70832;SDS011;58452;59.418;17.962;2022-11-04T04:32:07;10.13;;;3.78;;
70832;SDS011;58452;59.418;17.962;2022-11-04T04:34:33;9.55;;;3.90;;
70832;SDS011;58452;59.418;17.962;2022-11-04T04:37:08;10.32;;;3.72;;
70832;SDS011;58452;59.418;17.962;2022-11-04T04:39:52;9.60;;;3.67;;
70832;SDS011;58452;59.418;17.962;2022-11-04T04:42:40;13.13;;;3.40;;
70832;SDS011;58452;59.418;17.962;2022-11-04T04:45:30;13.48;;;4.80;;
70832;SDS011;58452;59.418;17.962;2022-11-04T04:47:58;13.18;;;3.90;;
70832;SDS011;58452;59.418;17.962;2022-11-04T04:50:25;8.98;;;3.33;;
70832;SDS011;58452;59.418;17.962;2022-11-04T04:52:55;10.85;;;3.08;;
70832;SDS011;58452;59.418;17.962;2022-11-04T04:55:21;15.90;;;3.58;;
70832;SDS011;58452;59.418;17.962;2022-11-04T04:57:47;8.13;;;3.28;;
70832;SDS011;58452;59.418;17.962;2022-11-04T05:00:14;10.57;;;3.55;;
70832;SDS011;58452;59.418;17.962;2022-11-04T05:02:42;7.15;;;3.20;;
70832;SDS011;58452;59.418;17.962;2022-11-04T05:05:09;11.18;;;4.28;;
70832;SDS011;58452;59.418;17.962;2022-11-04T05:07:38;7.38;;;2.85;;
70832;SDS011;58452;59.418;17.962;2022-11-04T05:10:04;9.02;;;3.22;;
70832;SDS011;58452;59.418;17.962;2022-11-04T05:12:30;12.45;;;3.30;;
70832;SDS011;58452;59.418;17.962;2022-11-04T05:15:16;16.70;;;3.28;;
70832;SDS011;58452;59.418;17.962;2022-11-04T05:17:42;13.27;;;3.00;;
70832;SDS011;58452;59.418;17.962;2022-11-04T05:20:07;15.80;;;4.93;;
70832;SDS011;58452;59.418;17.962;2022-11-04T05:22:33;10.50;;;3.83;;
70832;SDS011;58452;59.418;17.962;2022-11-04T05:24:59;11.07;;;2.85;;
70832;SDS011;58452;59.418;17.962;2022-11-04T05:27:24;8.55;;;3.30;;
70832;SDS011;58452;59.418;17.962;2022-11-04T05:29:49;11.05;;;3.67;;
70832;SDS011;58452;59.418;17.962;2022-11-04T05:32:15;11.07;;;3.38;;
70832;SDS011;58452;59.418;17.962;2022-11-04T05:34:40;8.35;;;3.17;;
70832;SDS011;58452;59.418;17.962;2022-11-04T05:37:05;11.70;;;2.50;;
70832;SDS011;58452;59.418;17.962;2022-11-04T05:39:31;6.75;;;3.40;;
70832;SDS011;58452;59.418;17.962;2022-11-04T05:41:56;9.70;;;2.58;;
70832;SDS011;58452;59.418;17.962;2022-11-04T05:44:22;10.05;;;2.25;;
70832;SDS011;58452;59.418;17.962;2022-11-04T05:46:48;13.55;;;3.45;;
70832;SDS011;58452;59.418;17.962;2022-11-04T05:49:13;9.40;;;3.30;;
70832;SDS011;58452;59.418;17.962;2022-11-04T05:51:38;8.32;;;3.00;;
70832;SDS011;58452;59.418;17.962;2022-11-04T05:54:04;16.27;;;3.70;;
70832;SDS011;58452;59.418;17.962;2022-11-04T05:56:29;19.05;;;4.13;;
70832;SDS011;58452;59.418;17.962;2022-11-04T05:58:55;11.20;;;3.25;;
70832;SDS011;58452;59.418;17.962;2022-11-04T06:03:54;9.10;;;2.50;;
70832;SDS011;58452;59.418;17.962;2022-11-04T06:06:21;13.90;;;2.42;;
70832;SDS011;58452;59.418;17.962;2022-11-04T06:08:48;13.73;;;2.80;;
70832;SDS011;58452;59.418;17.962;2022-11-04T06:11:14;9.07;;;2.55;;
70832;SDS011;58452;59.418;17.962;2022-11-04T06:13:40;8.57;;;3.42;;
70832;SDS011;58452;59.418;17.962;2022-11-04T06:16:06;9.52;;;2.65;;
70832;SDS011;58452;59.418;17.962;2022-11-04T06:18:31;9.52;;;2.55;;
70832;SDS011;58452;59.418;17.962;2022-11-04T06:23:34;6.50;;;2.25;;
70832;SDS011;58452;59.418;17.962;2022-11-04T06:26:00;11.00;;;2.72;;
70832;SDS011;58452;59.418;17.962;2022-11-04T06:28:25;9.82;;;2.28;;
70832;SDS011;58452;59.418;17.962;2022-11-04T06:30:51;10.13;;;2.20;;
70832;SDS011;58452;59.418;17.962;2022-11-04T06:33:16;8.00;;;2.45;;
70832;SDS011;58452;59.418;17.962;2022-11-04T06:35:41;10.35;;;2.70;;
70832;SDS011;58452;59.418;17.962;2022-11-04T06:38:07;10.82;;;2.60;;
70832;SDS011;58452;59.418;17.962;2022-11-04T06:40:32;7.80;;;3.58;;
70832;SDS011;58452;59.418;17.962;2022-11-04T06:42:57;6.38;;;2.25;;
70832;SDS011;58452;59.418;17.962;2022-11-04T06:45:23;10.77;;;2.78;;
70832;SDS011;58452;59.418;17.962;2022-11-04T06:47:48;13.93;;;2.75;;
70832;SDS011;58452;59.418;17.962;2022-11-04T06:50:14;6.70;;;2.45;;
70832;SDS011;58452;59.418;17.962;2022-11-04T06:52:39;10.00;;;2.25;;
70832;SDS011;58452;59.418;17.962;2022-11-04T06:55:05;9.25;;;3.67;;
70832;SDS011;58452;59.418;17.962;2022-11-04T06:57:31;6.82;;;1.67;;
70832;SDS011;58452;59.418;17.962;2022-11-04T06:59:56;8.57;;;2.75;;
70832;SDS011;58452;59.418;17.962;2022-11-04T07:02:22;5.18;;;2.15;;
70832;SDS011;58452;59.418;17.962;2022-11-04T07:04:47;10.73;;;2.50;;
70832;SDS011;58452;59.418;17.962;2022-11-04T07:07:12;4.95;;;1.90;;
70832;SDS011;58452;59.418;17.962;2022-11-04T07:09:38;6.07;;;2.95;;
70832;SDS011;58452;59.418;17.962;2022-11-04T07:12:03;16.23;;;4.22;;
70832;SDS011;58452;59.418;17.962;2022-11-04T07:14:29;7.90;;;2.38;;
70832;SDS011;58452;59.418;17.962;2022-11-04T07:16:55;12.30;;;2.20;;
70832;SDS011;58452;59.418;17.962;2022-11-04T07:19:20;15.50;;;3.08;;
70832;SDS011;58452;59.418;17.962;2022-11-04T07:21:46;8.75;;;2.13;;
70832;SDS011;58452;59.418;17.962;2022-11-04T07:24:11;7.78;;;2.00;;
70832;SDS011;58452;59.418;17.962;2022-11-04T07:26:36;12.35;;;2.75;;
70832;SDS011;58452;59.418;17.962;2022-11-04T07:29:02;12.88;;;2.85;;
70832;SDS011;58452;59.418;17.962;2022-11-04T07:31:29;13.93;;;2.58;;
70832;SDS011;58452;59.418;17.962;2022-11-04T07:33:54;8.00;;;3.00;;
70832;SDS011;58452;59.418;17.962;2022-11-04T07:36:20;8.00;;;1.60;;
70832;SDS011;58452;59.418;17.962;2022-11-04T07:38:46;14.57;;;2.42;;
70832;SDS011;58452;59.418;17.962;2022-11-04T07:41:12;6.78;;;2.20;;
70832;SDS011;58452;59.418;17.962;2022-11-04T07:43:38;10.57;;;2.25;;
70832;SDS011;58452;59.418;17.962;2022-11-04T07:46:04;10.73;;;2.10;;
70832;SDS011;58452;59.418;17.962;2022-11-04T07:48:32;8.93;;;2.60;;
70832;SDS011;58452;59.418;17.962;2022-11-04T07:50:58;9.57;;;1.92;;
70832;SDS011;58452;59.418;17.962;2022-11-04T07:53:25;6.05;;;1.63;;
70832;SDS011;58452;59.418;17.962;2022-11-04T07:55:51;7.40;;;2.42;;
70832;SDS011;58452;59.418;17.962;2022-11-04T07:58:18;13.23;;;2.28;;
70832;SDS011;58452;59.418;17.962;2022-11-04T08:00:43;7.93;;;2.22;;
70832;SDS011;58452;59.418;17.962;2022-11-04T08:03:09;9.88;;;3.45;;
70832;SDS011;58452;59.418;17.962;2022-11-04T08:05:34;9.45;;;1.98;;
70832;SDS011;58452;59.418;17.962;2022-11-04T08:07:59;7.40;;;1.92;;
70832;SDS011;58452;59.418;17.962;2022-11-04T08:10:25;8.48;;;1.80;;
70832;SDS011;58452;59.418;17.962;2022-11-04T08:12:50;12.70;;;3.63;;
70832;SDS011;58452;59.418;17.962;2022-11-04T08:15:16;6.10;;;2.38;;
70832;SDS011;58452;59.418;17.962;2022-11-04T08:17:42;8.35;;;2.00;;
70832;SDS011;58452;59.418;17.962;2022-11-04T08:20:07;9.50;;;2.00;;
70832;SDS011;58452;59.418;17.962;2022-11-04T08:22:33;14.15;;;2.60;;
70832;SDS011;58452;59.418;17.962;2022-11-04T08:24:59;17.17;;;2.53;;
70832;SDS011;58452;59.418;17.962;2022-11-04T08:27:25;8.68;;;2.40;;
70832;SDS011;58452;59.418;17.962;2022-11-04T08:29:50;8.48;;;2.22;;
70832;SDS011;58452;59.418;17.962;2022-11-04T08:32:16;8.40;;;2.40;;
70832;SDS011;58452;59.418;17.962;2022-11-04T08:34:41;13.73;;;2.28;;
70832;SDS011;58452;59.418;17.962;2022-11-04T08:37:07;11.52;;;2.58;;
70832;SDS011;58452;59.418;17.962;2022-11-04T08:39:32;7.40;;;2.63;;
70832;SDS011;58452;59.418;17.962;2022-11-04T08:41:57;7.57;;;1.70;;
70832;SDS011;58452;59.418;17.962;2022-11-04T08:44:23;7.70;;;1.92;;
70832;SDS011;58452;59.418;17.962;2022-11-04T08:46:48;13.73;;;2.63;;
70832;SDS011;58452;59.418;17.962;2022-11-04T08:49:14;10.77;;;1.98;;
70832;SDS011;58452;59.418;17.962;2022-11-04T08:51:42;10.63;;;1.90;;
70832;SDS011;58452;59.418;17.962;2022-11-04T08:54:08;10.27;;;2.28;;
70832;SDS011;58452;59.418;17.962;2022-11-04T08:56:35;10.93;;;2.00;;
70832;SDS011;58452;59.418;17.962;2022-11-04T08:59:02;5.57;;;1.65;;
70832;SDS011;58452;59.418;17.962;2022-11-04T09:01:29;13.05;;;2.33;;
70832;SDS011;58452;59.418;17.962;2022-11-04T09:03:58;7.28;;;2.20;;
70832;SDS011;58452;59.418;17.962;2022-11-04T09:06:28;7.35;;;2.10;;
70832;SDS011;58452;59.418;17.962;2022-11-04T09:08:56;8.85;;;2.50;;
70832;SDS011;58452;59.418;17.962;2022-11-04T09:11:27;4.50;;;1.55;;
70832;SDS011;58452;59.418;17.962;2022-11-04T09:13:53;7.97;;;1.77;;
70832;SDS011;58452;59.418;17.962;2022-11-04T09:16:20;10.55;;;2.53;;
70832;SDS011;58452;59.418;17.962;2022-11-04T09:18:45;9.15;;;2.00;;
70832;SDS011;58452;59.418;17.962;2022-11-04T09:21:11;6.07;;;1.85;;
70832;SDS011;58452;59.418;17.962;2022-11-04T09:23:36;10.18;;;2.10;;
70832;SDS011;58452;59.418;17.962;2022-11-04T09:26:12;12.73;;;2.45;;
70832;SDS011;58452;59.418;17.962;2022-11-04T09:28:39;9.80;;;3.10;;
70832;SDS011;58452;59.418;17.962;2022-11-04T09:31:06;8.15;;;1.90;;
70832;SDS011;58452;59.418;17.962;2022-11-04T09:33:32;6.88;;;1.60;;
70832;SDS011;58452;59.418;17.962;2022-11-04T09:35:58;9.90;;;2.03;;
70832;SDS011;58452;59.418;17.962;2022-11-04T09:38:24;6.28;;;1.67;;
70832;SDS011;58452;59.418;17.962;2022-11-04T09:40:50;14.98;;;2.88;;
70832;SDS011;58452;59.418;17.962;2022-11-04T09:46:02;10.00;;;1.92;;
70832;SDS011;58452;59.418;17.962;2022-11-04T09:48:43;11.85;;;2.17;;
70832;SDS011;58452;59.418;17.962;2022-11-04T09:51:12;8.75;;;1.83;;
70832;SDS011;58452;59.418;17.962;2022-11-04T09:53:50;10.93;;;2.35;;
70832;SDS011;58452;59.418;17.962;2022-11-04T09:56:27;11.73;;;2.40;;
70832;SDS011;58452;59.418;17.962;2022-11-04T09:58:56;10.15;;;2.03;;
70832;SDS011;58452;59.418;17.962;2022-11-04T10:04:06;11.32;;;2.42;;
70832;SDS011;58452;59.418;17.962;2022-11-04T10:12:14;16.40;;;2.95;;
70832;SDS011;58452;59.418;17.962;2022-11-04T10:18:11;6.25;;;1.85;;
70832;SDS011;58452;59.418;17.962;2022-11-04T10:21:02;6.80;;;1.77;;
70832;SDS011;58452;59.418;17.962;2022-11-04T10:26:30;9.95;;;2.03;;
70832;SDS011;58452;59.418;17.962;2022-11-04T10:29:00;7.65;;;1.80;;
70832;SDS011;58452;59.418;17.962;2022-11-04T10:31:29;10.38;;;2.88;;
70832;SDS011;58452;59.418;17.962;2022-11-04T10:33:57;5.07;;;1.60;;
70832;SDS011;58452;59.418;17.962;2022-11-04T10:36:27;8.52;;;2.10;;
70832;SDS011;58452;59.418;17.962;2022-11-04T10:38:54;5.97;;;1.52;;
70832;SDS011;58452;59.418;17.962;2022-11-04T10:44:05;7.68;;;1.88;;
70832;SDS011;58452;59.418;17.962;2022-11-04T10:46:37;5.78;;;1.70;;
70832;SDS011;58452;59.418;17.962;2022-11-04T10:52:02;10.35;;;2.08;;
70832;SDS011;58452;59.418;17.962;2022-11-04T10:54:29;7.72;;;2.08;;
70832;SDS011;58452;59.418;17.962;2022-11-04T10:57:02;9.48;;;2.08;;
70832;SDS011;58452;59.418;17.962;2022-11-04T10:59:28;3.28;;;1.58;;
70832;SDS011;58452;59.418;17.962;2022-11-04T11:01:59;6.80;;;2.00;;
70832;SDS011;58452;59.418;17.962;2022-11-04T11:04:32;6.00;;;1.67;;
70832;SDS011;58452;59.418;17.962;2022-11-04T11:07:01;4.32;;;1.38;;
70832;SDS011;58452;59.418;17.962;2022-11-04T11:09:32;5.55;;;1.70;;
70832;SDS011;58452;59.418;17.962;2022-11-04T11:12:05;10.82;;;2.30;;
70832;SDS011;58452;59.418;17.962;2022-11-04T11:14:47;9.52;;;2.65;;
70832;SDS011;58452;59.418;17.962;2022-11-04T11:19:49;11.07;;;2.03;;
70832;SDS011;58452;59.418;17.962;2022-11-04T11:25:19;9.60;;;1.60;;
70832;SDS011;58452;59.418;17.962;2022-11-04T11:27:53;8.75;;;2.47;;
70832;SDS011;58452;59.418;17.962;2022-11-04T11:30:23;7.68;;;1.40;;
70832;SDS011;58452;59.418;17.962;2022-11-04T11:32:56;6.07;;;2.08;;
70832;SDS011;58452;59.418;17.962;2022-11-04T11:35:32;11.60;;;1.67;;
70832;SDS011;58452;59.418;17.962;2022-11-04T11:38:05;8.45;;;2.90;;
70832;SDS011;58452;59.418;17.962;2022-11-04T11:40:48;9.25;;;2.33;;
70832;SDS011;58452;59.418;17.962;2022-11-04T11:43:26;4.07;;;1.35;;
70832;SDS011;58452;59.418;17.962;2022-11-04T11:45:54;7.35;;;1.58;;
70832;SDS011;58452;59.418;17.962;2022-11-04T11:51:07;5.90;;;1.60;;
70832;SDS011;58452;59.418;17.962;2022-11-04T11:56:37;4.53;;;1.55;;
70832;SDS011;58452;59.418;17.962;2022-11-04T11:59:32;9.70;;;1.98;;
70832;SDS011;58452;59.418;17.962;2022-11-04T12:04:46;13.50;;;3.45;;
70832;SDS011;58452;59.418;17.962;2022-11-04T12:07:58;5.38;;;1.50;;
70832;SDS011;58452;59.418;17.962;2022-11-04T12:12:40;7.32;;;1.80;;
70832;SDS011;58452;59.418;17.962;2022-11-04T12:15:23;6.78;;;1.67;;
70832;SDS011;58452;59.418;17.962;2022-11-04T12:18:07;8.70;;;2.38;;
70832;SDS011;58452;59.418;17.962;2022-11-04T12:23:50;6.38;;;1.55;;
70832;SDS011;58452;59.418;17.962;2022-11-04T12:34:30;6.05;;;1.88;;
70832;SDS011;58452;59.418;17.962;2022-11-04T12:51:40;7.65;;;2.08;;
70832;SDS011;58452;59.418;17.962;2022-11-04T13:00:08;7.93;;;1.50;;
70832;SDS011;58452;59.418;17.962;2022-11-04T13:02:45;4.63;;;1.67;;
70832;SDS011;58452;59.418;17.962;2022-11-04T13:07:54;9.77;;;2.42;;
70832;SDS011;58452;59.418;17.962;2022-11-04T13:13:20;10.25;;;1.52;;
70832;SDS011;58452;59.418;17.962;2022-11-04T13:15:51;10.07;;;2.70;;
70832;SDS011;58452;59.418;17.962;2022-11-04T13:18:20;5.85;;;1.60;;
70832;SDS011;58452;59.418;17.962;2022-11-04T13:20:57;10.85;;;1.80;;
70832;SDS011;58452;59.418;17.962;2022-11-04T13:23:26;9.98;;;1.70;;
70832;SDS011;58452;59.418;17.962;2022-11-04T13:25:56;8.23;;;2.30;;
70832;SDS011;58452;59.418;17.962;2022-11-04T13:28:23;7.70;;;1.73;;
70832;SDS011;58452;59.418;17.962;2022-11-04T13:36:20;5.47;;;1.70;;
70832;SDS011;58452;59.418;17.962;2022-11-04T13:41:42;8.15;;;1.83;;
70832;SDS011;58452;59.418;17.962;2022-11-04T13:44:34;5.95;;;1.67;;
70832;SDS011;58452;59.418;17.962;2022-11-04T13:47:04;6.28;;;1.88;;
70832;SDS011;58452;59.418;17.962;2022-11-04T13:49:38;5.73;;;2.40;;
70832;SDS011;58452;59.418;17.962;2022-11-04T13:57:48;7.93;;;2.47;;
70832;SDS011;58452;59.418;17.962;2022-11-04T14:00:20;10.13;;;1.75;;
70832;SDS011;58452;59.418;17.962;2022-11-04T14:02:51;6.43;;;1.45;;
70832;SDS011;58452;59.418;17.962;2022-11-04T14:16:01;7.32;;;2.25;;
70832;SDS011;58452;59.418;17.962;2022-11-04T14:18:29;8.95;;;2.28;;
70832;SDS011;58452;59.418;17.962;2022-11-04T14:23:46;8.70;;;1.70;;
70832;SDS011;58452;59.418;17.962;2022-11-04T14:26:14;14.82;;;2.05;;
70832;SDS011;58452;59.418;17.962;2022-11-04T14:29:30;8.27;;;2.22;;
70832;SDS011;58452;59.418;17.962;2022-11-04T14:31:46;10.50;;;1.77;;
70832;SDS011;58452;59.418;17.962;2022-11-04T14:34:27;8.48;;;1.90;;
70832;SDS011;58452;59.418;17.962;2022-11-04T14:36:56;8.65;;;2.80;;
70832;SDS011;58452;59.418;17.962;2022-11-04T14:39:23;5.43;;;1.80;;
70832;SDS011;58452;59.418;17.962;2022-11-04T14:41:58;12.32;;;2.00;;
70832;SDS011;58452;59.418;17.962;2022-11-04T14:47:39;11.63;;;2.90;;
70832;SDS011;58452;59.418;17.962;2022-11-04T14:49:51;4.50;;;1.70;;
70832;SDS011;58452;59.418;17.962;2022-11-04T14:52:21;6.72;;;2.22;;
70832;SDS011;58452;59.418;17.962;2022-11-04T14:55:01;13.15;;;1.95;;
70832;SDS011;58452;59.418;17.962;2022-11-04T14:57:34;7.57;;;2.03;;
70832;SDS011;58452;59.418;17.962;2022-11-04T15:03:11;10.90;;;2.35;;
70832;SDS011;58452;59.418;17.962;2022-11-04T15:05:48;8.43;;;1.35;;
70832;SDS011;58452;59.418;17.962;2022-11-04T15:08:24;9.07;;;2.20;;
70832;SDS011;58452;59.418;17.962;2022-11-04T15:11:01;5.63;;;1.75;;
70832;SDS011;58452;59.418;17.962;2022-11-04T15:13:26;9.68;;;1.80;;
70832;SDS011;58452;59.418;17.962;2022-11-04T15:15:53;10.48;;;2.38;;
70832;SDS011;58452;59.418;17.962;2022-11-04T15:18:22;9.10;;;2.20;;
70832;SDS011;58452;59.418;17.962;2022-11-04T15:20:56;11.00;;;2.13;;
70832;SDS011;58452;59.418;17.962;2022-11-04T15:23:27;8.23;;;2.40;;
70832;SDS011;58452;59.418;17.962;2022-11-04T15:25:56;10.63;;;2.78;;
70832;SDS011;58452;59.418;17.962;2022-11-04T15:28:24;7.50;;;1.92;;
70832;SDS011;58452;59.418;17.962;2022-11-04T15:33:55;5.65;;;2.00;;
70832;SDS011;58452;59.418;17.962;2022-11-04T15:39:02;11.55;;;2.47;;
70832;SDS011;58452;59.418;17.962;2022-11-04T15:41:31;6.28;;;2.17;;
70832;SDS011;58452;59.418;17.962;2022-11-04T15:44:18;11.83;;;1.77;;
70832;SDS011;58452;59.418;17.962;2022-11-04T15:46:48;17.77;;;3.92;;
70832;SDS011;58452;59.418;17.962;2022-11-04T15:49:19;6.75;;;2.30;;
70832;SDS011;58452;59.418;17.962;2022-11-04T15:51:48;5.22;;;1.95;;
70832;SDS011;58452;59.418;17.962;2022-11-04T15:54:19;11.90;;;2.20;;
70832;SDS011;58452;59.418;17.962;2022-11-04T15:56:48;5.65;;;2.00;;
70832;SDS011;58452;59.418;17.962;2022-11-04T15:59:20;9.50;;;3.35;;
70832;SDS011;58452;59.418;17.962;2022-11-04T16:01:50;13.43;;;3.47;;
70832;SDS011;58452;59.418;17.962;2022-11-04T16:04:16;7.65;;;2.17;;
70832;SDS011;58452;59.418;17.962;2022-11-04T16:06:45;10.88;;;2.53;;
70832;SDS011;58452;59.418;17.962;2022-11-04T16:09:25;14.60;;;2.88;;
70832;SDS011;58452;59.418;17.962;2022-11-04T16:14:36;11.02;;;1.92;;
70832;SDS011;58452;59.418;17.962;2022-11-04T16:17:02;7.18;;;2.50;;
70832;SDS011;58452;59.418;17.962;2022-11-04T16:19:28;9.32;;;2.45;;
70832;SDS011;58452;59.418;17.962;2022-11-04T16:21:58;9.57;;;2.33;;
70832;SDS011;58452;59.418;17.962;2022-11-04T16:24:25;8.48;;;2.92;;
70832;SDS011;58452;59.418;17.962;2022-11-04T16:26:54;7.43;;;1.70;;
70832;SDS011;58452;59.418;17.962;2022-11-04T16:29:24;14.23;;;3.35;;
70832;SDS011;58452;59.418;17.962;2022-11-04T16:32:14;11.73;;;2.50;;
70832;SDS011;58452;59.418;17.962;2022-11-04T16:34:41;12.85;;;3.13;;
70832;SDS011;58452;59.418;17.962;2022-11-04T16:37:08;4.10;;;1.83;;
70832;SDS011;58452;59.418;17.962;2022-11-04T16:39:34;9.70;;;2.10;;
70832;SDS011;58452;59.418;17.962;2022-11-04T16:41:59;6.50;;;2.05;;
70832;SDS011;58452;59.418;17.962;2022-11-04T16:44:25;9.10;;;1.95;;
70832;SDS011;58452;59.418;17.962;2022-11-04T16:46:51;7.80;;;2.22;;
70832;SDS011;58452;59.418;17.962;2022-11-04T16:49:17;6.25;;;1.85;;
70832;SDS011;58452;59.418;17.962;2022-11-04T16:51:52;8.07;;;1.50;;
70832;SDS011;58452;59.418;17.962;2022-11-04T16:54:19;18.30;;;2.85;;
70832;SDS011;58452;59.418;17.962;2022-11-04T16:56:44;9.65;;;2.28;;
70832;SDS011;58452;59.418;17.962;2022-11-04T16:59:10;9.68;;;3.40;;
70832;SDS011;58452;59.418;17.962;2022-11-04T17:01:35;13.82;;;2.17;;
70832;SDS011;58452;59.418;17.962;2022-11-04T17:04:03;5.80;;;2.33;;
70832;SDS011;58452;59.418;17.962;2022-11-04T17:06:30;11.98;;;2.28;;
70832;SDS011;58452;59.418;17.962;2022-11-04T17:08:57;6.63;;;2.03;;
70832;SDS011;58452;59.418;17.962;2022-11-04T17:11:22;8.18;;;1.77;;
70832;SDS011;58452;59.418;17.962;2022-11-04T17:13:47;7.97;;;1.80;;
70832;SDS011;58452;59.418;17.962;2022-11-04T17:16:13;8.43;;;1.92;;
70832;SDS011;58452;59.418;17.962;2022-11-04T17:18:39;11.30;;;3.08;;
70832;SDS011;58452;59.418;17.962;2022-11-04T17:21:06;8.23;;;1.70;;
70832;SDS011;58452;59.418;17.962;2022-11-04T17:23:33;8.02;;;1.60;;
70832;SDS011;58452;59.418;17.962;2022-11-04T17:25:58;8.35;;;3.25;;